Time;durP1;ratioP1;P1;durP2;ratioP2;P2;SDS_P1;SDS_P2;PMS_P1;PMS_P2;Temp;Humidity;BMP_temperature;BMP_pressure;BME280_temperature;BME280_humidity;BME280_pressure;Samples;Min_cycle;Max_cycle;Signal;HPM_P1;HPM_P2
2022/07/02 00:00:49;;;;;;;3.65;1.48;;;13.60;99.90;;;;;;5067803;28;20102;-83
2022/07/02 00:03:18;;;;;;;7.05;1.90;;;13.60;99.90;;;;;;5051236;28;20048;-83
2022/07/02 00:05:47;;;;;;;8.25;1.83;;;13.60;99.90;;;;;;5088355;28;20054;-84
2022/07/02 00:08:16;;;;;;;2.20;1.80;;;13.60;99.90;;;;;;5051132;28;20049;-83
2022/07/02 00:10:43;;;;;;;4.25;1.40;;;13.50;99.90;;;;;;5067235;28;20045;-83
2022/07/02 00:13:09;;;;;;;10.45;2.33;;;13.50;99.90;;;;;;5036081;28;20128;-83
2022/07/02 00:15:35;;;;;;;4.65;2.08;;;13.50;99.90;;;;;;5034585;28;20128;-84
2022/07/02 00:18:01;;;;;;;5.10;1.90;;;13.50;99.90;;;;;;5050154;28;20533;-83
2022/07/02 00:20:27;;;;;;;8.32;2.28;;;13.50;99.90;;;;;;5034611;28;20436;-83
2022/07/02 00:22:54;;;;;;;6.53;2.22;;;13.50;99.90;;;;;;5018054;28;20045;-83
2022/07/02 00:25:21;;;;;;;5.82;2.28;;;13.50;99.90;;;;;;5034504;28;20056;-83
2022/07/02 00:27:47;;;;;;;4.13;1.50;;;13.50;99.90;;;;;;5049937;28;20041;-83
2022/07/02 00:30:14;;;;;;;5.28;1.40;;;13.50;99.90;;;;;;5046011;28;20481;-83
2022/07/02 00:32:42;;;;;;;4.20;1.67;;;13.50;99.90;;;;;;5033299;28;20099;-82
2022/07/02 00:35:11;;;;;;;3.53;2.00;;;13.50;99.90;;;;;;5067278;28;20053;-83
2022/07/02 00:37:37;;;;;;;8.23;2.78;;;13.40;99.90;;;;;;5067629;28;20049;-83
2022/07/02 00:40:07;;;;;;;4.05;1.88;;;13.40;99.90;;;;;;5066477;28;20041;-83
2022/07/02 00:42:36;;;;;;;5.45;2.13;;;13.40;99.90;;;;;;5035177;28;20120;-82
2022/07/02 00:45:02;;;;;;;5.28;2.55;;;13.40;99.90;;;;;;5066825;28;20049;-83
2022/07/02 00:47:30;;;;;;;8.73;2.67;;;13.30;99.90;;;;;;5043329;28;20048;-83
2022/07/02 00:49:56;;;;;;;6.55;2.60;;;13.30;99.90;;;;;;5037765;28;20041;-83
2022/07/02 00:52:22;;;;;;;9.10;2.75;;;13.30;99.90;;;;;;5086424;28;20041;-83
2022/07/02 00:54:47;;;;;;;8.00;2.60;;;13.30;99.90;;;;;;5067335;28;20100;-83
2022/07/02 00:57:13;;;;;;;10.27;3.40;;;13.20;99.90;;;;;;5034970;28;20171;-83
2022/07/02 00:59:40;;;;;;;7.90;2.58;;;13.20;99.90;;;;;;5034397;28;20041;-83
2022/07/02 01:02:11;;;;;;;6.35;2.90;;;13.20;99.90;;;;;;5081959;28;20178;-83
2022/07/02 01:04:38;;;;;;;8.82;3.05;;;13.20;99.90;;;;;;5066960;28;20037;-83
2022/07/02 01:07:07;;;;;;;10.88;3.13;;;13.20;99.90;;;;;;5033988;28;20056;-82
2022/07/02 01:12:26;;;;;;;10.80;3.15;;;13.20;99.90;;;;;;5034789;28;20053;-83
2022/07/02 01:14:53;;;;;;;9.43;3.25;;;13.10;99.90;;;;;;5033946;28;20256;-83
2022/07/02 01:17:19;;;;;;;9.98;3.70;;;13.10;99.90;;;;;;5034711;28;20371;-83
2022/07/02 01:19:45;;;;;;;12.07;3.08;;;13.10;99.90;;;;;;5066588;28;20041;-83
2022/07/02 01:22:19;;;;;;;8.90;3.72;;;13.10;99.90;;;;;;5050857;28;20037;-82
2022/07/02 01:24:50;;;;;;;9.38;3.55;;;13.10;99.90;;;;;;5086588;28;20041;-83
2022/07/02 01:27:20;;;;;;;7.30;3.75;;;13.10;99.90;;;;;;5038287;28;20456;-83
2022/07/02 01:29:47;;;;;;;8.23;4.00;;;13.10;99.90;;;;;;5034474;28;20052;-83
2022/07/02 01:32:13;;;;;;;12.68;4.20;;;13.10;99.90;;;;;;5066240;28;20046;-83
2022/07/02 01:34:44;;;;;;;13.23;3.78;;;13.10;99.90;;;;;;5065329;28;20103;-83
2022/07/02 01:37:12;;;;;;;5.93;3.35;;;13.10;99.90;;;;;;5079064;28;20048;-83
2022/07/02 01:39:39;;;;;;;7.75;3.35;;;13.00;99.90;;;;;;5069593;28;20057;-83
2022/07/02 01:42:06;;;;;;;8.10;3.83;;;13.10;99.90;;;;;;5041042;28;20045;-83
2022/07/02 01:44:34;;;;;;;8.10;3.78;;;13.00;99.90;;;;;;5034168;28;20108;-83
2022/07/02 01:47:04;;;;;;;10.70;3.72;;;13.00;99.90;;;;;;5070255;28;20126;-83
2022/07/02 01:49:30;;;;;;;11.45;4.25;;;13.00;99.90;;;;;;5085555;28;20362;-83
2022/07/02 01:51:56;;;;;;;6.53;4.03;;;13.00;99.90;;;;;;5044649;28;20041;-83
2022/07/02 01:54:22;;;;;;;10.85;3.83;;;13.00;99.90;;;;;;5065840;28;20060;-83
2022/07/02 01:56:48;;;;;;;9.15;4.72;;;13.00;99.90;;;;;;5065014;28;20390;-83
2022/07/02 01:59:13;;;;;;;7.15;4.03;;;13.00;99.90;;;;;;5065988;28;20135;-82
2022/07/02 02:01:43;;;;;;;10.88;5.22;;;13.00;99.90;;;;;;5033719;28;20449;-83
2022/07/02 02:04:09;;;;;;;7.95;3.58;;;13.00;99.90;;;;;;5082035;28;20072;-83
2022/07/02 02:06:37;;;;;;;9.77;3.60;;;13.00;99.90;;;;;;5034089;28;20045;-83
2022/07/02 02:09:03;;;;;;;8.85;4.18;;;13.00;99.90;;;;;;5065983;28;20111;-83
2022/07/02 02:11:29;;;;;;;9.43;3.92;;;13.00;99.90;;;;;;5033258;28;20111;-83
2022/07/02 02:13:58;;;;;;;7.43;3.65;;;13.00;99.90;;;;;;5065564;28;20386;-84
2022/07/02 02:16:25;;;;;;;10.55;3.40;;;12.90;99.90;;;;;;5082072;28;20045;-83
2022/07/02 02:18:51;;;;;;;5.68;2.95;;;12.90;99.90;;;;;;5065509;28;20049;-82
2022/07/02 02:21:17;;;;;;;7.28;3.65;;;12.90;99.90;;;;;;5065781;28;20094;-82
2022/07/02 02:23:43;;;;;;;7.40;3.20;;;12.90;99.90;;;;;;5031410;28;20049;-83
2022/07/02 02:26:08;;;;;;;9.68;3.25;;;12.90;99.90;;;;;;5082456;28;20049;-83
2022/07/02 02:28:34;;;;;;;9.00;3.35;;;12.90;99.90;;;;;;5081824;28;20080;-83
2022/07/02 02:31:00;;;;;;;6.97;3.55;;;12.90;99.90;;;;;;5031423;28;20045;-83
2022/07/02 02:33:26;;;;;;;9.85;3.55;;;12.90;99.90;;;;;;5032038;28;20053;-83
2022/07/02 02:35:52;;;;;;;9.70;3.50;;;12.90;99.90;;;;;;5048849;28;20069;-83
2022/07/02 02:38:17;;;;;;;5.03;3.17;;;12.90;99.90;;;;;;5064653;28;20045;-83
2022/07/02 02:40:43;;;;;;;5.95;3.22;;;12.90;99.90;;;;;;5015956;28;20041;-83
2022/07/02 02:43:09;;;;;;;6.15;3.15;;;12.90;99.90;;;;;;5033000;28;20053;-84
2022/07/02 02:45:35;;;;;;;9.02;2.95;;;12.90;99.90;;;;;;5064879;28;20053;-84
2022/07/02 02:48:01;;;;;;;7.85;3.47;;;12.90;99.90;;;;;;5032001;28;20049;-83
2022/07/02 02:50:26;;;;;;;8.43;3.38;;;12.90;99.90;;;;;;5065222;28;20041;-83
2022/07/02 02:52:52;;;;;;;8.68;3.30;;;12.90;99.90;;;;;;5064804;28;20041;-83
2022/07/02 02:55:18;;;;;;;10.23;3.20;;;12.90;99.90;;;;;;5065079;28;20041;-83
2022/07/02 02:57:44;;;;;;;6.55;3.10;;;12.90;99.90;;;;;;5065380;28;20091;-83
2022/07/02 03:00:10;;;;;;;6.63;2.92;;;12.90;99.90;;;;;;5064296;28;20049;-84
2022/07/02 03:02:36;;;;;;;7.32;3.15;;;12.90;99.90;;;;;;5065347;28;20121;-83
2022/07/02 03:05:02;;;;;;;10.50;3.20;;;12.90;99.90;;;;;;5032995;28;20457;-83
2022/07/02 03:07:28;;;;;;;10.60;3.10;;;12.90;99.90;;;;;;5064221;28;20100;-83
2022/07/02 03:09:54;;;;;;;10.43;3.38;;;13.00;99.90;;;;;;5015339;28;20045;-83
2022/07/02 03:12:20;;;;;;;9.48;3.08;;;12.90;99.90;;;;;;5033902;28;20038;-83
2022/07/02 03:14:45;;;;;;;14.13;3.50;;;13.00;99.90;;;;;;5034903;28;20132;-83
2022/07/02 03:17:11;;;;;;;11.50;4.00;;;12.90;99.90;;;;;;5068836;28;20041;-82
2022/07/02 03:19:37;;;;;;;8.75;3.58;;;13.00;99.90;;;;;;5036072;28;20056;-83
2022/07/02 03:22:03;;;;;;;8.60;3.65;;;13.00;99.90;;;;;;5036784;28;20160;-83
2022/07/02 03:24:28;;;;;;;9.13;3.42;;;13.00;99.90;;;;;;5052084;28;20129;-84
2022/07/02 03:26:54;;;;;;;12.15;3.83;;;13.00;99.90;;;;;;5035920;28;20132;-83
2022/07/02 03:29:20;;;;;;;10.35;3.85;;;13.00;99.90;;;;;;5068934;28;20133;-83
2022/07/02 03:31:46;;;;;;;6.25;3.38;;;13.00;99.90;;;;;;5036103;28;20408;-83
2022/07/02 03:34:11;;;;;;;15.70;4.47;;;13.00;99.90;;;;;;5067629;28;20119;-83
2022/07/02 03:36:37;;;;;;;7.65;2.85;;;13.00;99.90;;;;;;5068672;28;20432;-83
2022/07/02 03:39:03;;;;;;;8.02;3.17;;;13.00;99.90;;;;;;5019041;28;20099;-83
2022/07/02 03:41:29;;;;;;;10.10;3.53;;;13.00;99.90;;;;;;5067341;28;20474;-83
2022/07/02 03:43:54;;;;;;;14.02;3.50;;;13.00;99.90;;;;;;5036250;28;20484;-83
2022/07/02 03:46:20;;;;;;;11.70;3.78;;;13.00;99.90;;;;;;5036667;28;20470;-83
2022/07/02 03:48:46;;;;;;;15.15;4.90;;;13.00;99.90;;;;;;5035829;28;20037;-83
2022/07/02 03:51:12;;;;;;;8.75;3.85;;;13.10;99.90;;;;;;5043762;28;20120;-83
2022/07/02 03:53:37;;;;;;;10.63;4.05;;;13.10;99.90;;;;;;5048596;28;20103;-83
2022/07/02 03:56:04;;;;;;;8.57;3.17;;;13.10;99.90;;;;;;5067366;28;20041;-84
2022/07/02 03:58:31;;;;;;;6.82;3.20;;;13.10;99.90;;;;;;5036432;28;20041;-83
2022/07/02 04:00:57;;;;;;;6.88;3.67;;;13.10;99.90;;;;;;5067940;28;20057;-82
2022/07/02 04:03:23;;;;;;;7.50;3.33;;;13.10;99.90;;;;;;5035350;28;20096;-84
2022/07/02 04:05:49;;;;;;;11.68;3.65;;;13.10;99.90;;;;;;5035986;28;20084;-83
2022/07/02 04:08:15;;;;;;;8.88;3.30;;;13.10;99.90;;;;;;5021236;28;20478;-83
2022/07/02 04:10:41;;;;;;;8.15;3.45;;;13.10;99.90;;;;;;5037633;28;20183;-83
2022/07/02 04:13:08;;;;;;;8.65;3.67;;;13.20;99.90;;;;;;5049468;28;20041;-83
2022/07/02 04:15:34;;;;;;;12.90;3.55;;;13.20;99.90;;;;;;5055800;28;20037;-83
2022/07/02 04:18:00;;;;;;;9.73;3.70;;;13.20;99.90;;;;;;5083359;28;20048;-83
2022/07/02 04:20:26;;;;;;;10.77;3.72;;;13.30;99.90;;;;;;5043854;28;20397;-84
2022/07/02 04:22:52;;;;;;;8.18;3.67;;;13.30;99.90;;;;;;5071060;28;20037;-82
2022/07/02 04:25:18;;;;;;;10.00;3.50;;;13.30;99.90;;;;;;5033695;28;20501;-83
2022/07/02 04:27:43;;;;;;;8.23;3.53;;;13.40;99.90;;;;;;5067720;28;20083;-84
2022/07/02 04:30:10;;;;;;;7.00;4.18;;;13.40;99.90;;;;;;5033441;28;20814;-82
2022/07/02 04:32:37;;;;;;;8.50;3.40;;;13.50;99.90;;;;;;5048772;28;20037;-83
2022/07/02 04:35:03;;;;;;;8.98;3.97;;;13.60;99.90;;;;;;5055370;28;20128;-84
2022/07/02 04:37:29;;;;;;;7.15;3.92;;;13.70;99.90;;;;;;5043782;28;20048;-83
2022/07/02 04:39:55;;;;;;;14.48;3.92;;;13.70;99.90;;;;;;5034365;28;20053;-83
2022/07/02 04:42:20;;;;;;;13.10;4.45;;;13.80;99.90;;;;;;5035655;28;20069;-83
2022/07/02 04:44:46;;;;;;;9.57;4.10;;;13.90;99.90;;;;;;5066597;28;20433;-84
2022/07/02 04:47:12;;;;;;;10.02;3.85;;;14.00;99.90;;;;;;5035563;28;20550;-83
2022/07/02 04:49:37;;;;;;;8.85;4.22;;;14.20;99.90;;;;;;5035164;28;20144;-83
2022/07/02 04:52:04;;;;;;;17.13;4.18;;;14.20;99.90;;;;;;5082694;28;20041;-84
2022/07/02 04:54:30;;;;;;;8.68;4.53;;;14.30;99.90;;;;;;5033538;28;20049;-83
2022/07/02 04:56:56;;;;;;;8.77;3.80;;;14.40;99.90;;;;;;5033445;28;20546;-84
2022/07/02 04:59:21;;;;;;;9.23;5.05;;;14.40;99.90;;;;;;5047423;28;20033;-84
2022/07/02 05:01:47;;;;;;;6.90;4.35;;;14.50;99.90;;;;;;5076798;28;20087;-84
2022/07/02 05:04:13;;;;;;;11.30;4.78;;;14.60;99.90;;;;;;5050136;28;20037;-84
2022/07/02 05:06:39;;;;;;;8.23;4.35;;;14.60;99.90;;;;;;5065657;28;20455;-84
2022/07/02 05:09:05;;;;;;;9.90;4.65;;;14.70;99.90;;;;;;5038787;28;20045;-85
2022/07/02 05:11:31;;;;;;;9.18;4.75;;;14.70;99.90;;;;;;5086852;28;20091;-84
2022/07/02 05:13:57;;;;;;;17.60;4.97;;;14.80;99.90;;;;;;5052124;28;20041;-84
2022/07/02 05:16:22;;;;;;;11.15;4.40;;;14.80;99.90;;;;;;5076001;28;20060;-84
2022/07/02 05:18:48;;;;;;;9.32;4.32;;;14.80;99.90;;;;;;5054532;28;20449;-84
2022/07/02 05:21:14;;;;;;;8.57;4.47;;;14.90;99.90;;;;;;5054879;28;20047;-84
2022/07/02 05:23:40;;;;;;;8.65;4.93;;;14.90;99.90;;;;;;5051793;28;20138;-85
2022/07/02 05:26:06;;;;;;;7.63;4.50;;;15.00;99.90;;;;;;5085845;28;20041;-85
2022/07/02 05:28:31;;;;;;;7.97;4.45;;;15.00;99.90;;;;;;5075215;28;20055;-83
2022/07/02 05:30:57;;;;;;;9.68;4.63;;;15.10;99.90;;;;;;5083129;28;20064;-82
2022/07/02 05:33:23;;;;;;;9.50;4.72;;;15.10;99.90;;;;;;5075737;28;20040;-83
2022/07/02 05:35:49;;;;;;;10.10;4.38;;;15.10;99.90;;;;;;5051911;28;20489;-83
2022/07/02 05:38:15;;;;;;;8.23;4.50;;;15.20;99.90;;;;;;5046439;28;20045;-84
2022/07/02 05:40:40;;;;;;;11.18;4.72;;;15.30;99.90;;;;;;5033455;28;20045;-82
2022/07/02 05:43:09;;;;;;;7.68;4.45;;;15.30;99.90;;;;;;5084124;28;20049;-83
2022/07/02 05:45:35;;;;;;;10.27;4.40;;;15.30;99.90;;;;;;5032976;28;20038;-83
2022/07/02 05:48:01;;;;;;;8.65;4.25;;;15.40;99.90;;;;;;5032527;28;20038;-82
2022/07/02 05:50:26;;;;;;;9.77;4.60;;;15.50;99.90;;;;;;5049231;28;20045;-84
2022/07/02 05:52:52;;;;;;;7.60;4.07;;;15.50;99.90;;;;;;5049100;28;20076;-83
2022/07/02 05:55:18;;;;;;;12.07;3.88;;;15.60;99.90;;;;;;5060526;28;20045;-82
2022/07/02 05:57:44;;;;;;;8.90;3.80;;;15.60;99.90;;;;;;5047643;28;20381;-82
2022/07/02 06:00:11;;;;;;;7.55;3.70;;;15.70;99.90;;;;;;5074371;28;20473;-83
2022/07/02 06:02:37;;;;;;;16.40;3.63;;;15.70;99.90;;;;;;5048293;28;20493;-82
2022/07/02 06:07:38;;;;;;;7.28;3.97;;;15.80;99.90;;;;;;5080442;28;20038;-83
2022/07/02 06:07:49;;;;;;;7.30;3.20;;;15.80;99.90;;;;;;5034033;28;20053;-83
2022/07/02 06:10:18;;;;;;;9.32;3.83;;;15.90;99.90;;;;;;5064903;28;20060;-83
2022/07/02 06:12:52;;;;;;;9.32;4.03;;;16.00;99.90;;;;;;5065623;28;20499;-83
2022/07/02 06:15:18;;;;;;;6.73;3.20;;;16.10;99.90;;;;;;5065613;28;20056;-82
2022/07/02 06:17:44;;;;;;;11.35;3.22;;;16.10;99.90;;;;;;5065343;28;20383;-83
2022/07/02 06:20:11;;;;;;;7.05;3.15;;;16.20;99.90;;;;;;5033661;28;20068;-84
2022/07/02 06:22:37;;;;;;;6.75;2.80;;;16.30;99.90;;;;;;5064733;28;20059;-82
2022/07/02 06:25:04;;;;;;;6.88;2.92;;;16.30;99.90;;;;;;5033645;28;20042;-82
2022/07/02 06:27:34;;;;;;;8.55;2.95;;;16.40;99.90;;;;;;5033698;28;20548;-83
2022/07/02 06:30:03;;;;;;;8.82;2.92;;;16.50;99.90;;;;;;5065112;28;20121;-83
2022/07/02 06:32:30;;;;;;;8.10;2.88;;;16.60;99.90;;;;;;5032353;28;20045;-82
2022/07/02 06:34:56;;;;;;;8.93;2.33;;;16.70;99.90;;;;;;5033475;28;20120;-82
2022/07/02 06:37:22;;;;;;;8.43;3.15;;;16.80;99.90;;;;;;5032503;28;20052;-82
2022/07/02 06:39:49;;;;;;;8.38;2.85;;;16.90;99.90;;;;;;5033278;28;20120;-84
2022/07/02 06:42:22;;;;;;;7.95;2.88;;;17.00;99.90;;;;;;5032279;28;20117;-83
2022/07/02 06:44:51;;;;;;;7.72;2.40;;;17.10;99.90;;;;;;5064578;28;20489;-83
2022/07/02 06:47:17;;;;;;;7.80;2.28;;;17.10;99.90;;;;;;5033883;28;20042;-83
2022/07/02 06:49:44;;;;;;;5.28;2.15;;;17.20;99.90;;;;;;5036241;28;20049;-82
2022/07/02 06:52:10;;;;;;;6.05;2.22;;;17.30;99.90;;;;;;5068412;28;20502;-81
2022/07/02 06:54:37;;;;;;;8.23;2.72;;;17.40;99.90;;;;;;5037300;28;20045;-83
2022/07/02 06:57:04;;;;;;;6.45;2.13;;;17.50;99.90;;;;;;5069212;28;20141;-83
2022/07/02 06:59:30;;;;;;;10.35;2.65;;;17.50;99.90;;;;;;5034957;28;20505;-81
2022/07/02 07:01:56;;;;;;;9.40;2.40;;;17.60;99.90;;;;;;5037245;28;20088;-83
2022/07/02 07:04:22;;;;;;;6.32;1.77;;;17.70;99.90;;;;;;5068975;28;20489;-83
2022/07/02 07:06:51;;;;;;;8.48;2.75;;;17.70;99.90;;;;;;5018213;28;20068;-81
2022/07/02 07:09:18;;;;;;;9.70;3.03;;;17.80;99.90;;;;;;5037103;28;20045;-83
2022/07/02 07:11:44;;;;;;;7.93;2.13;;;17.90;99.90;;;;;;5068550;28;20049;-83
2022/07/02 07:14:09;;;;;;;7.25;2.40;;;17.90;99.90;;;;;;5068656;28;20413;-83
2022/07/02 07:16:35;;;;;;;6.40;2.10;;;18.00;99.90;;;;;;5035352;28;20136;-83
2022/07/02 07:19:04;;;;;;;7.32;1.85;;;18.10;99.90;;;;;;5068084;28;20191;-83
2022/07/02 07:21:31;;;;;;;12.80;2.38;;;18.10;99.90;;;;;;5035577;28;20083;-83
2022/07/02 07:23:56;;;;;;;6.97;2.53;;;18.20;99.90;;;;;;5036635;28;20060;-84
2022/07/02 07:26:22;;;;;;;7.78;2.08;;;18.30;99.90;;;;;;5035944;28;20045;-84
2022/07/02 07:28:48;;;;;;;10.00;2.15;;;18.30;99.90;;;;;;5068604;28;20128;-83
2022/07/02 07:31:19;;;;;;;4.18;1.38;;;18.40;99.90;;;;;;5068614;28;20095;-83
2022/07/02 07:33:52;;;;;;;5.97;1.58;;;18.40;99.90;;;;;;5035825;28;20046;-84
2022/07/02 07:36:20;;;;;;;9.90;1.55;;;18.50;99.90;;;;;;5036468;28;20049;-82
2022/07/02 07:38:46;;;;;;;6.47;2.08;;;18.60;99.90;;;;;;5036359;28;20052;-82
2022/07/02 07:41:12;;;;;;;5.80;1.85;;;18.60;99.90;;;;;;5034188;28;20049;-84
2022/07/02 07:43:39;;;;;;;6.13;1.70;;;18.70;99.90;;;;;;5068383;28;20128;-84
2022/07/02 07:46:04;;;;;;;5.95;1.83;;;18.70;99.90;;;;;;5051430;28;20052;-83
2022/07/02 07:48:30;;;;;;;6.90;1.55;;;18.70;99.90;;;;;;5034292;28;20045;-82
2022/07/02 07:50:56;;;;;;;6.45;2.05;;;18.70;99.90;;;;;;5036146;28;20037;-85
2022/07/02 07:53:22;;;;;;;6.57;1.50;;;18.70;99.90;;;;;;5036088;28;20045;-83
2022/07/02 07:55:48;;;;;;;8.95;1.35;;;18.70;99.90;;;;;;5035150;28;20116;-82
2022/07/02 07:58:15;;;;;;;3.00;0.82;;;18.80;99.90;;;;;;5035616;28;20503;-84
2022/07/02 08:00:40;;;;;;;4.75;1.20;;;18.80;99.90;;;;;;5035064;28;20049;-82
2022/07/02 08:03:06;;;;;;;5.63;1.50;;;18.80;99.90;;;;;;5067237;28;20053;-83
2022/07/02 08:05:32;;;;;;;3.95;1.30;;;18.90;99.90;;;;;;5035912;28;20042;-84
2022/07/02 08:07:58;;;;;;;5.75;2.28;;;18.90;99.90;;;;;;5050183;28;20096;-83
2022/07/02 08:10:24;;;;;;;6.95;1.45;;;18.90;99.90;;;;;;5035763;28;20401;-82
2022/07/02 08:12:50;;;;;;;6.00;1.60;;;18.90;99.90;;;;;;5035560;28;20037;-83
2022/07/02 08:15:16;;;;;;;3.97;1.05;;;18.90;99.90;;;;;;5033578;28;20045;-83
2022/07/02 08:17:42;;;;;;;7.32;1.15;;;18.90;99.90;;;;;;5067733;28;20497;-82
2022/07/02 08:20:09;;;;;;;3.83;1.30;;;18.90;99.90;;;;;;5034642;28;20053;-84
2022/07/02 08:22:36;;;;;;;3.80;1.27;;;18.90;99.90;;;;;;5066719;28;20076;-84
2022/07/02 08:25:03;;;;;;;8.32;1.58;;;19.00;99.90;;;;;;5051109;28;20046;-82
2022/07/02 08:27:29;;;;;;;2.83;1.23;;;19.00;99.90;;;;;;5035578;28;20041;-82
2022/07/02 08:29:55;;;;;;;24.35;1.77;;;19.00;99.90;;;;;;5066787;28;20489;-85
2022/07/02 08:32:21;;;;;;;5.00;1.38;;;19.00;99.90;;;;;;5035346;28;20045;-84
2022/07/02 08:34:47;;;;;;;6.20;1.10;;;19.10;99.90;;;;;;5034093;28;20049;-83
2022/07/02 08:37:14;;;;;;;8.10;1.60;;;19.00;99.90;;;;;;5034421;28;20072;-83
2022/07/02 08:39:40;;;;;;;6.57;1.60;;;19.00;99.90;;;;;;5035285;28;20486;-83
2022/07/02 08:42:08;;;;;;;6.05;1.63;;;19.00;99.90;;;;;;5084206;28;20048;-85
2022/07/02 08:44:35;;;;;;;3.85;0.80;;;19.00;99.90;;;;;;5033372;28;20045;-84
2022/07/02 08:47:07;;;;;;;2.83;1.13;;;19.00;99.90;;;;;;5067138;28;20050;-83
2022/07/02 08:49:35;;;;;;;6.63;1.55;;;19.00;99.90;;;;;;5035115;28;20075;-83
2022/07/02 08:52:04;;;;;;;5.00;0.98;;;19.10;99.90;;;;;;5066164;28;20041;-85
2022/07/02 08:54:35;;;;;;;3.35;0.70;;;19.10;99.90;;;;;;5034903;28;20127;-83
2022/07/02 08:57:02;;;;;;;3.33;0.80;;;19.10;99.90;;;;;;5067215;28;20098;-83
2022/07/02 08:59:31;;;;;;;5.43;1.15;;;19.10;99.90;;;;;;5083323;28;20049;-84
2022/07/02 09:01:58;;;;;;;3.33;0.60;;;19.10;99.90;;;;;;5033682;28;20068;-84
2022/07/02 09:04:25;;;;;;;4.45;0.80;;;19.00;99.90;;;;;;5066289;28;20042;-85
2022/07/02 09:06:57;;;;;;;2.40;1.20;;;19.10;99.90;;;;;;5034671;28;20093;-84
2022/07/02 09:09:27;;;;;;;2.55;0.93;;;19.10;99.90;;;;;;5033350;28;20042;-82
2022/07/02 09:11:53;;;;;;;2.85;0.73;;;19.20;99.90;;;;;;5034219;28;20049;-83
2022/07/02 09:14:21;;;;;;;2.72;0.90;;;19.20;99.90;;;;;;5066515;28;20056;-83
2022/07/02 09:16:48;;;;;;;4.88;0.70;;;19.30;99.90;;;;;;5034739;28;20041;-85
2022/07/02 09:19:15;;;;;;;1.23;0.68;;;19.40;99.90;;;;;;5033625;28;20050;-82
2022/07/02 09:21:51;;;;;;;2.38;0.77;;;19.40;99.90;;;;;;5034450;28;20053;-84
2022/07/02 09:24:34;;;;;;;2.72;0.80;;;19.40;99.90;;;;;;5033185;28;20477;-82
2022/07/02 09:27:02;;;;;;;2.00;0.82;;;19.40;99.90;;;;;;5032547;28;20049;-82
2022/07/02 09:29:28;;;;;;;1.15;0.55;;;19.50;99.90;;;;;;5066541;28;20436;-82
2022/07/02 09:31:54;;;;;;;8.05;2.00;;;19.50;99.90;;;;;;5034416;28;20080;-83
2022/07/02 09:34:27;;;;;;;3.78;0.80;;;19.60;99.90;;;;;;5065508;28;20077;-86
2022/07/02 09:36:53;;;;;;;2.70;0.52;;;19.60;99.90;;;;;;5034313;28;20067;-82
2022/07/02 09:39:31;;;;;;;2.72;0.90;;;19.60;99.90;;;;;;5033613;28;20051;-83
2022/07/02 09:41:58;;;;;;;3.47;0.80;;;19.60;99.90;;;;;;5033002;28;20541;-85
2022/07/02 09:44:26;;;;;;;2.80;0.68;;;19.70;99.90;;;;;;5066156;28;20551;-84
2022/07/02 09:46:52;;;;;;;2.70;0.70;;;19.70;99.90;;;;;;5032088;28;20064;-84
2022/07/02 09:49:17;;;;;;;2.80;0.90;;;19.80;99.90;;;;;;5066021;28;20045;-81
2022/07/02 09:51:51;;;;;;;1.45;0.50;;;19.80;99.90;;;;;;5065998;28;20045;-82
2022/07/02 09:54:24;;;;;;;3.05;0.60;;;19.80;99.90;;;;;;5065086;28;20120;-84
2022/07/02 09:56:58;;;;;;;4.10;0.70;;;19.80;99.90;;;;;;5065911;28;20129;-83
2022/07/02 09:59:24;;;;;;;2.45;0.85;;;19.80;99.90;;;;;;5033799;28;20417;-83
2022/07/02 10:01:51;;;;;;;1.85;0.68;;;19.80;99.90;;;;;;5064840;28;20047;-83
2022/07/02 10:04:30;;;;;;;2.38;0.80;;;19.80;99.90;;;;;;5065781;28;20049;-83
2022/07/02 10:06:58;;;;;;;2.20;0.50;;;19.80;99.90;;;;;;5033633;28;20053;-84
2022/07/02 10:09:25;;;;;;;2.47;0.50;;;19.80;99.90;;;;;;5032663;28;20136;-83
2022/07/02 10:11:52;;;;;;;2.72;0.50;;;19.90;99.90;;;;;;5082776;28;20037;-82
2022/07/02 10:14:23;;;;;;;3.40;0.90;;;19.90;99.90;;;;;;5033642;28;20041;-83
2022/07/02 10:16:50;;;;;;;2.45;0.40;;;20.00;99.90;;;;;;5032811;28;20064;-84
2022/07/02 10:19:17;;;;;;;2.13;0.73;;;20.10;99.90;;;;;;5033589;28;20493;-82
2022/07/02 10:21:44;;;;;;;2.53;0.50;;;20.10;99.90;;;;;;5032827;28;20052;-87
2022/07/02 10:24:11;;;;;;;3.70;0.65;;;20.20;99.90;;;;;;5066130;28;20045;-84
2022/07/02 10:26:37;;;;;;;3.60;0.90;;;20.10;99.90;;;;;;5033479;28;20085;-86
2022/07/02 10:29:04;;;;;;;4.18;0.73;;;20.10;99.90;;;;;;5032622;28;20056;-83
2022/07/02 10:31:44;;;;;;;1.63;0.63;;;20.20;99.90;;;;;;5065509;28;20486;-83
2022/07/02 10:34:52;;;;;;;3.03;0.90;;;20.20;99.90;;;;;;5065389;28;20397;-84
2022/07/02 10:37:18;;;;;;;4.90;1.05;;;20.20;99.90;;;;;;5059028;28;20405;-88
2022/07/02 10:39:45;;;;;;;4.72;0.60;;;20.20;99.90;;;;;;5033320;28;20121;-82
2022/07/02 10:42:12;;;;;;;2.83;0.60;;;20.30;99.90;;;;;;5033511;28;20428;-83
2022/07/02 10:44:42;;;;;;;2.72;0.80;;;20.30;99.90;;;;;;5064435;28;20492;-83
2022/07/02 10:47:25;;;;;;;1.98;0.43;;;20.40;99.90;;;;;;5031937;28;20046;-83
2022/07/02 10:50:01;;;;;;;2.60;1.17;;;20.60;99.90;;;;;;5031267;28;20034;-82
2022/07/02 10:52:49;;;;;;;4.38;0.80;;;20.70;99.90;;;;;;5033297;28;20057;-84
2022/07/02 10:55:28;;;;;;;1.98;0.52;;;20.80;99.90;;;;;;5065355;28;20489;-83
2022/07/02 10:58:02;;;;;;;4.20;1.00;;;20.80;99.90;;;;;;5064493;28;20084;-84
2022/07/02 11:00:39;;;;;;;3.30;0.60;;;20.80;99.90;;;;;;5033208;28;20493;-83
2022/07/02 11:03:19;;;;;;;1.65;0.63;;;20.90;99.90;;;;;;5082256;28;20045;-85
2022/07/02 11:06:14;;;;;;;5.50;0.70;;;21.00;99.90;;;;;;5014699;28;20053;-83
2022/07/02 11:08:44;;;;;;;4.40;0.53;;;21.00;99.90;;;;;;5065221;28;20085;-81
2022/07/02 11:11:29;;;;;;;3.03;0.60;;;20.90;99.90;;;;;;5064542;28;20319;-84
2022/07/02 11:14:06;;;;;;;4.72;0.65;;;20.80;99.90;;;;;;5065124;28;20053;-85
2022/07/02 11:16:40;;;;;;;1.15;0.50;;;20.60;99.90;;;;;;5065312;28;20128;-84
2022/07/02 11:19:12;;;;;;;3.78;1.05;;;20.50;99.90;;;;;;5032445;28;20050;-83
2022/07/02 11:21:42;;;;;;;2.42;0.40;;;20.40;99.90;;;;;;5033181;28;20044;-82
2022/07/02 11:24:10;;;;;;;4.28;0.65;;;20.30;99.90;;;;;;5031679;28;20052;-82
2022/07/02 11:26:41;;;;;;;1.45;0.50;;;20.30;99.90;;;;;;5064282;28;20050;-85
2022/07/02 11:29:07;;;;;;;1.95;0.50;;;20.50;99.90;;;;;;5064897;28;20048;-83
2022/07/02 11:31:36;;;;;;;2.95;0.47;;;20.60;99.90;;;;;;5032836;28;20045;-85
2022/07/02 11:34:03;;;;;;;0.88;0.40;;;20.60;99.90;;;;;;5032752;28;20058;-82
2022/07/02 11:36:29;;;;;;;2.10;0.30;;;20.60;99.90;;;;;;5068636;28;20132;-83
2022/07/02 11:38:55;;;;;;;1.42;0.32;;;20.50;99.90;;;;;;5036188;28;20045;-83
2022/07/02 11:41:28;;;;;;;1.25;0.60;;;20.50;99.90;;;;;;5051758;28;20049;-85
2022/07/02 11:43:58;;;;;;;1.85;0.60;;;20.50;99.90;;;;;;5036551;28;20049;-83
2022/07/02 11:46:29;;;;;;;1.75;0.50;;;20.50;99.90;;;;;;5067698;28;20037;-82
2022/07/02 11:48:58;;;;;;;1.50;0.50;;;20.60;99.90;;;;;;5068665;28;20056;-83
2022/07/02 11:51:24;;;;;;;1.48;0.40;;;20.70;99.90;;;;;;5068351;28;20511;-82
2022/07/02 11:54:07;;;;;;;3.95;0.60;;;20.70;99.90;;;;;;5067256;28;20128;-84
2022/07/02 11:56:38;;;;;;;2.38;0.63;;;20.80;99.90;;;;;;5051495;28;20453;-83
2022/07/02 11:59:06;;;;;;;2.08;0.73;;;20.80;99.90;;;;;;5051341;28;20485;-83
2022/07/02 12:01:34;;;;;;;3.55;0.50;;;20.90;99.90;;;;;;5067284;28;20051;-84
2022/07/02 12:04:02;;;;;;;3.03;0.63;;;21.00;99.90;;;;;;5067997;28;20064;-83
2022/07/02 12:06:31;;;;;;;3.10;0.70;;;20.90;99.90;;;;;;5035834;28;20045;-83
2022/07/02 12:08:58;;;;;;;3.15;0.70;;;21.00;99.90;;;;;;5035333;28;20393;-86
2022/07/02 12:11:25;;;;;;;1.38;0.52;;;21.00;99.90;;;;;;5035912;28;20099;-82
2022/07/02 12:13:52;;;;;;;1.52;0.70;;;21.10;99.90;;;;;;5067821;28;20053;-83
2022/07/02 12:16:26;;;;;;;3.05;0.70;;;21.10;99.90;;;;;;5067249;28;20429;-84
2022/07/02 12:19:10;;;;;;;1.08;0.35;;;21.20;99.90;;;;;;5067763;28;20053;-88
2022/07/02 12:21:47;;;;;;;2.38;0.35;;;21.30;99.90;;;;;;5066784;28;20121;-86
2022/07/02 12:24:25;;;;;;;1.75;0.60;;;21.40;99.90;;;;;;5067770;28;20053;-84
2022/07/02 12:26:58;;;;;;;1.38;0.35;;;21.50;99.90;;;;;;5017676;28;20049;-83
2022/07/02 12:29:53;;;;;;;0.95;0.40;;;21.60;99.90;;;;;;5033471;28;20488;-84
2022/07/02 12:32:39;;;;;;;5.50;0.40;;;21.70;99.90;;;;;;5067784;28;20052;-85
2022/07/02 12:35:12;;;;;;;2.28;0.50;;;21.80;99.90;;;;;;5035208;28;20092;-84
2022/07/02 12:37:42;;;;;;;1.25;0.38;;;21.90;99.90;;;;;;5035596;28;20124;-83
2022/07/02 12:40:17;;;;;;;1.48;0.38;;;22.00;99.90;;;;;;5067404;28;20095;-82
2022/07/02 12:42:49;;;;;;;2.35;0.40;;;22.20;99.90;;;;;;5066693;28;20401;-81
2022/07/02 12:45:29;;;;;;;3.30;0.60;;;22.30;99.90;;;;;;5066723;28;20049;-83
2022/07/02 12:48:03;;;;;;;2.13;0.55;;;22.40;99.90;;;;;;5035153;28;20056;-83
2022/07/02 12:50:32;;;;;;;3.10;0.55;;;22.40;99.90;;;;;;5050061;28;20049;-83
2022/07/02 12:53:05;;;;;;;2.70;0.40;;;22.30;99.90;;;;;;5067109;28;20053;-85